Time;durP1;ratioP1;P1;durP2;ratioP2;P2;SDS_P1;SDS_P2;PMS_P1;PMS_P2;Temp;Humidity;BMP_temperature;BMP_pressure;BME280_temperature;BME280_humidity;BME280_pressure;Samples;Min_cycle;Max_cycle;Signal;HPM_P1;HPM_P2
2021/03/17 00:00:09;;;;;;;5.33;1.03;;;6.10;87.10;;;;;;5071966;28;20783;-65
2021/03/17 00:02:35;;;;;;;3.43;1.10;;;6.20;87.10;;;;;;5073096;28;20124;-65
2021/03/17 00:05:01;;;;;;;4.00;0.70;;;6.20;86.90;;;;;;5071780;28;20449;-65
2021/03/17 00:07:26;;;;;;;7.70;1.13;;;6.20;86.70;;;;;;5073235;28;20056;-65
2021/03/17 00:09:52;;;;;;;4.13;0.90;;;6.20;86.70;;;;;;5072679;28;20048;-65
2021/03/17 00:12:18;;;;;;;7.73;1.30;;;6.20;86.60;;;;;;5071969;28;20044;-65
2021/03/17 00:14:43;;;;;;;3.63;0.90;;;6.30;86.70;;;;;;5072535;28;20181;-65
2021/03/17 00:17:09;;;;;;;2.70;1.17;;;6.20;86.50;;;;;;5072550;28;20478;-65
2021/03/17 00:19:34;;;;;;;4.40;1.10;;;6.20;86.40;;;;;;5071942;28;20123;-66
2021/03/17 00:22:00;;;;;;;6.17;1.30;;;6.20;86.50;;;;;;5072520;28;20152;-65
2021/03/17 00:24:26;;;;;;;11.00;1.40;;;6.20;86.70;;;;;;5072454;28;20576;-65
2021/03/17 00:26:51;;;;;;;5.07;1.10;;;6.20;86.60;;;;;;5071687;28;20045;-66
2021/03/17 00:29:17;;;;;;;4.73;1.40;;;6.10;86.70;;;;;;5072337;28;20056;-65
2021/03/17 00:31:43;;;;;;;2.73;1.13;;;6.10;86.90;;;;;;5072235;28;20510;-66
2021/03/17 00:34:08;;;;;;;3.97;1.10;;;6.00;87.00;;;;;;5071425;28;20049;-66
2021/03/17 00:36:34;;;;;;;5.77;1.23;;;5.90;86.90;;;;;;5072312;28;20056;-65
2021/03/17 00:39:00;;;;;;;6.83;1.50;;;5.90;87.20;;;;;;5072241;28;20794;-65
2021/03/17 00:41:26;;;;;;;6.23;1.50;;;5.80;87.30;;;;;;5071274;28;20083;-65
2021/03/17 00:43:51;;;;;;;7.03;1.40;;;5.70;87.50;;;;;;5071999;28;20055;-65
2021/03/17 00:46:17;;;;;;;6.37;1.53;;;5.60;87.60;;;;;;5071728;28;20064;-65
2021/03/17 00:48:43;;;;;;;7.40;1.40;;;5.60;88.10;;;;;;5071014;28;20048;-65
2021/03/17 00:51:08;;;;;;;4.20;1.20;;;5.60;87.90;;;;;;5071795;28;20044;-65
2021/03/17 00:53:34;;;;;;;4.23;1.60;;;5.60;87.70;;;;;;5072248;28;20040;-65
2021/03/17 00:55:59;;;;;;;4.10;1.40;;;5.60;87.60;;;;;;5070936;28;20056;-66
2021/03/17 00:58:26;;;;;;;9.50;1.50;;;5.60;87.70;;;;;;5071803;28;20127;-65
2021/03/17 01:00:52;;;;;;;6.83;1.70;;;5.50;87.90;;;;;;5071456;28;20062;-65
2021/03/17 01:03:17;;;;;;;6.90;1.63;;;5.50;88.50;;;;;;5070287;28;20723;-65
2021/03/17 01:05:43;;;;;;;7.40;1.37;;;5.50;88.30;;;;;;5071742;28;20397;-65
2021/03/17 01:08:09;;;;;;;4.23;1.00;;;5.40;88.20;;;;;;5070754;28;20139;-65
2021/03/17 01:10:38;;;;;;;4.90;1.00;;;5.40;87.60;;;;;;5071994;28;20044;-65
2021/03/17 01:13:05;;;;;;;6.60;1.00;;;5.30;86.80;;;;;;5071583;28;20182;-65
2021/03/17 01:15:34;;;;;;;7.00;1.43;;;5.10;87.20;;;;;;5071360;28;20371;-65
2021/03/17 01:18:00;;;;;;;6.93;1.80;;;5.00;87.60;;;;;;5071388;28;20828;-65
2021/03/17 01:20:27;;;;;;;7.87;1.13;;;4.80;87.70;;;;;;5071568;28;20295;-65
2021/03/17 01:22:54;;;;;;;1.83;0.90;;;4.70;88.40;;;;;;5070900;28;20093;-65
2021/03/17 01:25:34;;;;;;;6.67;1.00;;;4.60;89.60;;;;;;5071291;28;20393;-65
2021/03/17 01:28:03;;;;;;;5.23;1.20;;;4.60;90.00;;;;;;5071335;28;20735;-65
2021/03/17 01:30:36;;;;;;;6.77;1.23;;;4.50;89.40;;;;;;5070777;28;20294;-65
2021/03/17 01:33:03;;;;;;;4.63;1.03;;;4.50;89.80;;;;;;5071356;28;20287;-65
2021/03/17 01:35:28;;;;;;;9.27;1.63;;;4.40;89.30;;;;;;5071676;28;20299;-65
2021/03/17 01:37:55;;;;;;;6.10;1.10;;;4.40;89.60;;;;;;5070521;28;20294;-65
2021/03/17 01:40:26;;;;;;;8.67;1.33;;;4.40;89.60;;;;;;5071273;28;20357;-65
2021/03/17 01:42:52;;;;;;;4.50;1.10;;;4.50;90.00;;;;;;5070900;28;20477;-65
2021/03/17 01:45:19;;;;;;;6.60;1.37;;;4.50;89.70;;;;;;5070285;28;20346;-65
2021/03/17 01:47:47;;;;;;;4.47;1.27;;;4.60;89.70;;;;;;5071151;28;20326;-65
2021/03/17 01:50:37;;;;;;;7.27;1.53;;;4.60;89.80;;;;;;5071002;28;20369;-65
2021/03/17 01:53:09;;;;;;;6.97;1.33;;;4.60;89.80;;;;;;5070465;28;20303;-65
2021/03/17 01:55:36;;;;;;;4.43;1.08;;;4.60;89.80;;;;;;5071338;28;20324;-65
2021/03/17 01:58:02;;;;;;;5.47;1.20;;;4.70;89.60;;;;;;5070066;28;20538;-65
2021/03/17 02:00:28;;;;;;;4.07;1.07;;;4.60;89.80;;;;;;5071373;28;20299;-65
2021/03/17 02:02:54;;;;;;;8.73;1.30;;;4.70;89.80;;;;;;5071021;28;20139;-65
2021/03/17 02:05:26;;;;;;;9.13;1.67;;;4.70;90.00;;;;;;5070194;28;20051;-65
2021/03/17 02:07:54;;;;;;;9.50;1.60;;;4.70;89.90;;;;;;5071006;28;20325;-65
2021/03/17 02:10:22;;;;;;;4.77;1.33;;;4.70;89.90;;;;;;5070995;28;20378;-65
2021/03/17 02:13:06;;;;;;;5.77;1.40;;;4.70;89.90;;;;;;5070901;28;20295;-65
2021/03/17 02:15:55;;;;;;;3.63;0.93;;;4.80;90.00;;;;;;5075401;28;20345;-65
2021/03/17 02:18:28;;;;;;;4.97;1.23;;;4.80;89.90;;;;;;5074397;28;20710;-65
2021/03/17 02:21:12;;;;;;;4.77;1.33;;;4.90;90.00;;;;;;5074960;28;20286;-65
2021/03/17 02:23:44;;;;;;;5.23;1.07;;;4.90;89.80;;;;;;5074852;28;20775;-66
2021/03/17 02:26:21;;;;;;;;;;;5.00;89.90;;;;;;5074341;28;20718;-65
2021/03/17 02:29:18;;;;;;;5.57;1.30;;;5.00;89.80;;;;;;5074464;28;19963;-65
2021/03/17 02:32:20;;;;;;;8.27;1.47;;;5.00;90.10;;;;;;5074585;28;20356;-65
2021/03/17 02:34:47;;;;;;;6.25;1.33;;;5.00;89.40;;;;;;5073783;28;20299;-65
2021/03/17 02:37:16;;;;;;;6.57;1.10;;;5.00;89.40;;;;;;5074351;28;20182;-65
2021/03/17 02:39:54;;;;;;;5.93;1.50;;;5.00;89.50;;;;;;5073760;28;20287;-65
2021/03/17 02:42:32;;;;;;;3.60;1.30;;;5.10;89.50;;;;;;5074475;28;20303;-65
2021/03/17 02:45:04;;;;;;;7.40;2.20;;;5.00;89.60;;;;;;5073990;28;20679;-65
2021/03/17 02:47:33;;;;;;;3.38;1.20;;;5.10;89.70;;;;;;5073764;28;20291;-65
2021/03/17 02:50:01;;;;;;;9.47;1.67;;;5.10;89.60;;;;;;5074288;28;20504;-65
2021/03/17 02:52:38;;;;;;;7.17;1.30;;;5.10;89.60;;;;;;5074557;28;20290;-65
2021/03/17 02:55:05;;;;;;;9.80;1.70;;;5.10;89.30;;;;;;5073622;28;20326;-65
2021/03/17 02:57:34;;;;;;;6.23;1.60;;;5.20;89.30;;;;;;5074534;28;20333;-65
2021/03/17 03:00:02;;;;;;;6.47;1.60;;;5.20;89.20;;;;;;5072906;28;20303;-66
2021/03/17 03:02:28;;;;;;;8.03;1.70;;;5.20;89.30;;;;;;5073496;28;20761;-65
2021/03/17 03:04:55;;;;;;;7.60;2.60;;;5.20;89.10;;;;;;5074006;28;20401;-65
2021/03/17 03:07:22;;;;;;;6.60;1.40;;;5.20;89.10;;;;;;5074168;28;20072;-65
2021/03/17 03:09:50;;;;;;;6.80;1.77;;;5.30;89.10;;;;;;5073222;28;20299;-65
2021/03/17 03:12:17;;;;;;;9.63;2.13;;;5.30;88.90;;;;;;5073882;28;20787;-65
2021/03/17 03:14:44;;;;;;;5.87;1.80;;;5.30;88.80;;;;;;5072898;28;20295;-65
2021/03/17 03:17:11;;;;;;;10.57;2.33;;;5.30;88.70;;;;;;5073830;28;20378;-65
2021/03/17 03:19:50;;;;;;;7.20;1.57;;;5.30;88.50;;;;;;5073863;28;20829;-65
2021/03/17 03:22:16;;;;;;;3.80;1.67;;;5.20;88.30;;;;;;5072930;28;20299;-65
2021/03/17 03:24:43;;;;;;;8.07;2.00;;;5.20;88.50;;;;;;5072490;28;20306;-65
2021/03/17 03:27:09;;;;;;;4.63;1.43;;;5.20;88.40;;;;;;5073508;28;20632;-65
2021/03/17 03:29:35;;;;;;;6.03;1.90;;;5.20;88.40;;;;;;5073004;28;20659;-65
2021/03/17 03:32:03;;;;;;;7.20;1.83;;;5.10;88.20;;;;;;5073560;28;20299;-65
2021/03/17 03:34:29;;;;;;;2.23;1.10;;;5.00;88.10;;;;;;5073626;28;20778;-65
2021/03/17 03:36:54;;;;;;;4.57;1.40;;;4.80;88.10;;;;;;5072550;28;20303;-65
2021/03/17 03:39:20;;;;;;;8.43;2.17;;;4.70;88.50;;;;;;5073273;28;20060;-65
2021/03/17 03:41:46;;;;;;;4.77;1.23;;;4.50;89.00;;;;;;5073234;28;20397;-65
2021/03/17 03:44:12;;;;;;;4.17;1.27;;;4.50;89.40;;;;;;5072543;28;20303;-64
2021/03/17 03:46:38;;;;;;;4.90;1.50;;;4.40;89.30;;;;;;5073354;28;20068;-64
2021/03/17 03:49:05;;;;;;;8.43;1.20;;;4.30;89.10;;;;;;5073190;28;20079;-65
2021/03/17 03:51:33;;;;;;;7.33;1.13;;;4.30;89.20;;;;;;5072459;28;20291;-65
2021/03/17 03:54:10;;;;;;;2.27;1.00;;;4.30;89.70;;;;;;5073132;28;20604;-64
2021/03/17 03:56:47;;;;;;;4.77;1.10;;;4.30;90.20;;;;;;5073348;28;20777;-64
2021/03/17 03:59:22;;;;;;;3.67;1.20;;;4.30;89.40;;;;;;5072508;28;20370;-65
2021/03/17 04:01:52;;;;;;;6.37;1.20;;;4.40;89.10;;;;;;5072865;28;20631;-65
2021/03/17 04:04:20;;;;;;;2.67;1.00;;;4.40;89.00;;;;;;5072127;28;20291;-65
2021/03/17 04:06:49;;;;;;;3.70;0.90;;;4.50;88.80;;;;;;5072592;28;20356;-64
2021/03/17 04:09:16;;;;;;;5.80;1.10;;;4.50;88.90;;;;;;5072649;28;20799;-65
2021/03/17 04:11:43;;;;;;;3.73;1.00;;;4.50;89.00;;;;;;5072008;28;20671;-65
2021/03/17 04:14:11;;;;;;;6.97;1.10;;;4.50;89.00;;;;;;5072680;28;20299;-65
2021/03/17 04:16:40;;;;;;;4.83;1.27;;;4.50;88.70;;;;;;5072893;28;20302;-65
2021/03/17 04:19:07;;;;;;;9.00;1.50;;;4.60;88.80;;;;;;5071657;28;20802;-65
2021/03/17 04:21:37;;;;;;;4.57;1.43;;;4.60;88.80;;;;;;5072665;28;20795;-65
2021/03/17 04:24:05;;;;;;;5.07;1.20;;;4.70;88.60;;;;;;5072190;28;20338;-64
2021/03/17 04:26:33;;;;;;;7.63;1.47;;;4.70;88.50;;;;;;5071960;28;20314;-65
2021/03/17 04:29:01;;;;;;;2.47;1.20;;;4.70;88.30;;;;;;5072247;28;20763;-65
2021/03/17 04:31:28;;;;;;;5.53;1.23;;;4.70;88.50;;;;;;5072521;28;20299;-64
2021/03/17 04:33:55;;;;;;;4.70;1.30;;;4.80;88.60;;;;;;5071570;28;20310;-65
2021/03/17 04:36:21;;;;;;;4.43;1.30;;;4.80;88.40;;;;;;5072070;28;20692;-64
2021/03/17 04:38:48;;;;;;;5.27;1.83;;;4.80;88.50;;;;;;5072199;28;20290;-65
2021/03/17 04:41:16;;;;;;;8.27;1.47;;;4.80;88.50;;;;;;5071344;28;20311;-65
2021/03/17 04:43:43;;;;;;;6.97;1.40;;;4.80;88.60;;;;;;5071990;28;20368;-65
2021/03/17 04:46:10;;;;;;;5.90;1.27;;;4.80;88.60;;;;;;5070820;28;20787;-65
2021/03/17 04:48:38;;;;;;;2.57;1.00;;;4.80;88.70;;;;;;5072360;28;20369;-65
2021/03/17 04:51:07;;;;;;;5.07;1.37;;;4.90;88.90;;;;;;5071891;28;20678;-65
2021/03/17 04:53:34;;;;;;;7.00;1.27;;;4.80;88.80;;;;;;5071427;28;20400;-65
2021/03/17 04:56:04;;;;;;;7.87;1.57;;;4.80;88.70;;;;;;5071606;28;20827;-65
2021/03/17 04:58:31;;;;;;;6.30;1.57;;;4.80;88.90;;;;;;5072136;28;20303;-65
2021/03/17 05:00:59;;;;;;;7.10;1.57;;;4.90;88.80;;;;;;5070875;28;20315;-65
2021/03/17 05:03:25;;;;;;;7.37;1.07;;;4.90;89.00;;;;;;5071802;28;20374;-65
2021/03/17 05:05:53;;;;;;;4.30;1.10;;;4.90;88.70;;;;;;5071443;28;20869;-65
2021/03/17 05:08:20;;;;;;;1.33;0.70;;;4.90;88.70;;;;;;5070954;28;20298;-65
2021/03/17 05:10:47;;;;;;;7.00;1.10;;;4.80;88.50;;;;;;5071631;28;20302;-65
2021/03/17 05:13:14;;;;;;;6.93;1.30;;;4.80;88.60;;;;;;5071440;28;20310;-65
2021/03/17 05:15:41;;;;;;;5.20;1.17;;;4.70;89.00;;;;;;5070752;28;20301;-65
2021/03/17 05:18:10;;;;;;;8.13;1.43;;;4.60;88.90;;;;;;5071791;28;20325;-65
2021/03/17 05:20:41;;;;;;;5.67;1.30;;;4.50;89.10;;;;;;5071764;28;20374;-65
2021/03/17 05:23:07;;;;;;;4.40;1.30;;;4.40;89.20;;;;;;5070882;28;20356;-65
2021/03/17 05:25:34;;;;;;;4.40;1.33;;;4.40;89.20;;;;;;5071462;28;20322;-65
2021/03/17 05:28:05;;;;;;;4.80;1.40;;;4.40;89.30;;;;;;5071285;28;20302;-65
2021/03/17 05:30:36;;;;;;;8.13;1.38;;;4.40;89.10;;;;;;5069550;28;20796;-65
2021/03/17 05:33:04;;;;;;;5.30;1.42;;;4.40;89.10;;;;;;5071171;28;20076;-65
2021/03/17 05:35:30;;;;;;;2.97;1.30;;;4.50;89.40;;;;;;5070993;28;20049;-65
2021/03/17 05:37:56;;;;;;;6.60;1.43;;;4.60;89.30;;;;;;5071050;28;20663;-65
2021/03/17 05:40:22;;;;;;;6.10;1.20;;;4.60;89.00;;;;;;5071096;28;20585;-65
2021/03/17 05:42:48;;;;;;;3.17;1.13;;;4.60;89.00;;;;;;5070382;28;20063;-65
2021/03/17 05:45:17;;;;;;;3.10;0.93;;;4.70;89.20;;;;;;5070937;28;20318;-65
2021/03/17 05:47:45;;;;;;;3.00;1.03;;;4.70;89.20;;;;;;5072849;28;20291;-65
2021/03/17 05:50:15;;;;;;;7.13;1.27;;;4.70;89.30;;;;;;5076542;28;20333;-64
2021/03/17 05:52:42;;;;;;;5.23;1.83;;;4.80;89.20;;;;;;5077818;28;20312;-64
2021/03/17 05:55:09;;;;;;;7.20;1.83;;;4.80;89.10;;;;;;5077598;28;20298;-64
2021/03/17 05:57:37;;;;;;;6.10;1.10;;;4.90;89.10;;;;;;5077471;28;20370;-65
2021/03/17 06:00:08;;;;;;;5.93;1.27;;;4.90;89.00;;;;;;5077441;28;20380;-65
2021/03/17 06:02:37;;;;;;;8.98;1.95;;;5.00;88.90;;;;;;5077932;28;20666;-65
2021/03/17 06:05:05;;;;;;;3.90;0.90;;;5.00;88.90;;;;;;5076500;28;20075;-64
2021/03/17 06:07:37;;;;;;;5.77;1.10;;;5.10;89.90;;;;;;5077714;28;20306;-65
2021/03/17 06:10:03;;;;;;;8.10;1.67;;;5.20;88.80;;;;;;5077521;28;20344;-64
2021/03/17 06:12:30;;;;;;;9.43;1.67;;;5.20;88.00;;;;;;5077308;28;20297;-65
2021/03/17 06:14:56;;;;;;;6.17;1.13;;;5.10;87.40;;;;;;5077556;28;20298;-64
2021/03/17 06:17:26;;;;;;;7.23;1.30;;;5.00;87.30;;;;;;5077567;28;20298;-65
2021/03/17 06:19:59;;;;;;;6.30;1.47;;;5.00;87.50;;;;;;5076741;28;20344;-64
2021/03/17 06:22:25;;;;;;;7.33;1.30;;;4.90;87.60;;;;;;5077579;28;20291;-65
2021/03/17 06:24:54;;;;;;;4.53;1.10;;;4.90;87.30;;;;;;5076718;28;20311;-64
2021/03/17 06:27:20;;;;;;;3.20;0.90;;;4.90;86.90;;;;;;5077444;28;20294;-65
2021/03/17 06:29:46;;;;;;;5.37;1.27;;;4.90;86.60;;;;;;5077446;28;20326;-65
2021/03/17 06:32:12;;;;;;;5.77;1.43;;;4.90;86.30;;;;;;5076461;28;20295;-65
2021/03/17 06:34:48;;;;;;;5.97;1.20;;;5.00;86.60;;;;;;5077548;28;20305;-65
2021/03/17 06:37:15;;;;;;;7.47;1.50;;;5.10;86.60;;;;;;5077387;28;20295;-64
2021/03/17 06:39:41;;;;;;;6.97;1.63;;;5.20;86.30;;;;;;5076672;28;20324;-65
2021/03/17 06:42:09;;;;;;;3.73;1.20;;;5.30;86.30;;;;;;5077305;28;20295;-65
2021/03/17 06:44:35;;;;;;;8.53;1.40;;;5.30;85.60;;;;;;5077267;28;20625;-65
2021/03/17 06:47:18;;;;;;;6.60;1.23;;;5.30;85.30;;;;;;5076200;28;20391;-64
2021/03/17 06:49:46;;;;;;;7.53;1.40;;;5.20;85.00;;;;;;5077339;28;20294;-64
2021/03/17 06:52:30;;;;;;;9.27;1.63;;;5.10;84.90;;;;;;5077033;28;20743;-64
2021/03/17 06:55:06;;;;;;;9.40;1.40;;;5.00;84.90;;;;;;5076326;28;20299;-64
2021/03/17 06:57:32;;;;;;;10.57;2.00;;;5.00;85.00;;;;;;5076934;28;20352;-64
2021/03/17 07:00:36;;;;;;;7.37;1.70;;;5.10;85.40;;;;;;5074329;28;20763;-65
2021/03/17 07:03:05;;;;;;;7.00;1.77;;;5.20;85.40;;;;;;5073812;28;20049;-65
2021/03/17 07:05:46;;;;;;;9.13;1.60;;;5.20;85.20;;;;;;5073793;28;20314;-65
2021/03/17 07:08:14;;;;;;;7.93;1.80;;;5.20;85.10;;;;;;5073080;28;20727;-65
2021/03/17 07:10:44;;;;;;;11.53;1.80;;;5.20;85.20;;;;;;5073691;28;20298;-65
2021/03/17 07:13:13;;;;;;;6.20;1.60;;;5.40;85.50;;;;;;5073694;28;20326;-65
2021/03/17 07:15:40;;;;;;;9.10;1.60;;;5.70;84.80;;;;;;5072995;28;20305;-65
2021/03/17 07:18:23;;;;;;;9.13;1.90;;;5.90;83.80;;;;;;5073531;28;20799;-65
2021/03/17 07:20:55;;;;;;;10.73;1.70;;;6.00;82.90;;;;;;5073234;28;20307;-66
2021/03/17 07:23:34;;;;;;;8.77;1.63;;;5.80;82.40;;;;;;5073590;28;20286;-65
2021/03/17 07:26:24;;;;;;;7.33;1.77;;;5.80;82.20;;;;;;5073374;28;20044;-65
2021/03/17 07:29:03;;;;;;;8.07;1.53;;;5.70;82.50;;;;;;5072457;28;20299;-65
2021/03/17 07:31:33;;;;;;;8.77;1.40;;;5.80;82.50;;;;;;5073438;28;20822;-65
2021/03/17 07:34:19;;;;;;;7.77;2.27;;;5.80;82.30;;;;;;5073336;28;20364;-65
2021/03/17 07:36:50;;;;;;;6.47;1.20;;;5.90;81.00;;;;;;5072548;28;20298;-65
2021/03/17 07:39:19;;;;;;;8.43;2.05;;;6.00;81.20;;;;;;5073105;28;20320;-65
2021/03/17 07:41:47;;;;;;;11.07;1.53;;;6.00;80.90;;;;;;5073059;28;20127;-65
2021/03/17 07:44:14;;;;;;;13.17;1.87;;;5.90;80.10;;;;;;5072410;28;20306;-65
2021/03/17 07:46:42;;;;;;;6.43;1.50;;;5.80;79.10;;;;;;5072482;28;20385;-65
2021/03/17 07:49:09;;;;;;;11.40;1.80;;;5.80;78.70;;;;;;5071906;28;20356;-65
2021/03/17 07:51:40;;;;;;;8.63;1.73;;;5.70;78.70;;;;;;5072813;28;20303;-65
2021/03/17 07:54:07;;;;;;;9.97;2.53;;;5.60;79.10;;;;;;5073023;28;20295;-65
2021/03/17 07:56:33;;;;;;;11.17;1.53;;;5.50;79.00;;;;;;5072242;28;20798;-65
2021/03/17 07:58:59;;;;;;;7.47;1.53;;;5.50;78.90;;;;;;5072466;28;20303;-65
2021/03/17 08:01:26;;;;;;;8.20;1.30;;;5.50;78.60;;;;;;5072211;28;20890;-65
2021/03/17 08:03:52;;;;;;;11.30;1.87;;;5.40;78.30;;;;;;5070382;28;20052;-65
2021/03/17 08:06:20;;;;;;;8.03;1.60;;;5.30;77.40;;;;;;5072442;28;20672;-66
2021/03/17 08:08:47;;;;;;;6.07;1.73;;;5.30;77.80;;;;;;5072759;28;20112;-66
2021/03/17 08:11:15;;;;;;;9.97;2.00;;;5.20;77.30;;;;;;5071443;28;20295;-66
2021/03/17 08:13:49;;;;;;;10.23;2.10;;;5.30;77.80;;;;;;5072452;28;20303;-67
2021/03/17 08:16:19;;;;;;;9.30;1.40;;;5.50;77.00;;;;;;5072529;28;20639;-67
2021/03/17 08:18:47;;;;;;;13.10;1.90;;;5.70;76.10;;;;;;5071696;28;20295;-67
2021/03/17 08:21:13;;;;;;;8.93;1.40;;;6.00;76.90;;;;;;5072451;28;20298;-67
2021/03/17 08:23:44;;;;;;;7.53;2.10;;;6.30;76.60;;;;;;5072419;28;20301;-67
2021/03/17 08:26:33;;;;;;;7.17;1.83;;;6.50;75.90;;;;;;5071608;28;20310;-67
2021/03/17 08:28:59;;;;;;;11.97;2.37;;;6.70;75.70;;;;;;5071862;28;20302;-67
2021/03/17 08:31:38;;;;;;;10.87;3.57;;;7.00;74.50;;;;;;5071213;28;21107;-68
2021/03/17 08:34:18;;;;;;;10.70;3.00;;;7.00;71.30;;;;;;5072328;28;20310;-67
2021/03/17 08:36:48;;;;;;;6.60;2.60;;;6.80;71.60;;;;;;5071968;28;20302;-67
2021/03/17 08:39:32;;;;;;;10.03;3.07;;;6.60;73.20;;;;;;5071308;28;20303;-66
2021/03/17 08:42:07;;;;;;;12.63;3.70;;;6.40;71.10;;;;;;5071767;28;20619;-65
2021/03/17 08:44:39;;;;;;;10.50;4.00;;;6.30;72.40;;;;;;5072039;28;20737;-67
2021/03/17 08:47:27;;;;;;;10.57;2.50;;;6.20;72.30;;;;;;5071277;28;20655;-66
2021/03/17 08:50:12;;;;;;;8.67;2.20;;;6.20;72.10;;;;;;5071821;28;20059;-66
2021/03/17 08:52:38;;;;;;;7.50;1.67;;;6.30;72.10;;;;;;5071372;28;20294;-66
2021/03/17 08:55:07;;;;;;;11.87;2.10;;;6.30;72.50;;;;;;5071415;28;20389;-67
2021/03/17 08:57:50;;;;;;;12.47;2.33;;;6.30;72.80;;;;;;5071496;28;20651;-67
2021/03/17 09:00:51;;;;;;;7.27;1.20;;;6.30;74.00;;;;;;5070816;28;20302;-67
2021/03/17 09:03:32;;;;;;;11.03;1.80;;;6.30;74.10;;;;;;5071073;28;20303;-65
2021/03/17 09:06:23;;;;;;;10.13;1.80;;;6.20;74.30;;;;;;5071381;28;20342;-66
2021/03/17 09:08:53;;;;;;;10.03;2.00;;;6.10;74.50;;;;;;5071175;28;20302;-67
2021/03/17 09:11:30;;;;;;;9.20;2.47;;;6.00;75.20;;;;;;5071475;28;20301;-67
2021/03/17 09:14:00;;;;;;;11.33;1.87;;;6.00;75.60;;;;;;5070804;28;20378;-66
2021/03/17 09:16:31;;;;;;;10.47;2.50;;;6.10;76.00;;;;;;5071340;28;20787;-66
2021/03/17 09:19:06;;;;;;;8.47;1.40;;;6.60;75.50;;;;;;5071234;28;20298;-66
2021/03/17 09:21:33;;;;;;;8.17;1.57;;;6.90;71.80;;;;;;5070918;28;20291;-66
2021/03/17 09:23:59;;;;;;;8.43;1.90;;;6.80;71.70;;;;;;5070624;28;20323;-66
2021/03/17 09:26:29;;;;;;;7.00;1.53;;;7.00;72.10;;;;;;5071394;28;20687;-66
2021/03/17 09:28:56;;;;;;;4.70;0.90;;;7.20;71.30;;;;;;5070674;28;20048;-66
2021/03/17 09:31:22;;;;;;;7.27;1.40;;;7.20;68.80;;;;;;5071372;28;20306;-67
2021/03/17 09:33:49;;;;;;;4.70;1.10;;;7.30;66.50;;;;;;5071283;28;20298;-66
2021/03/17 09:36:23;;;;;;;8.97;1.80;;;7.30;67.40;;;;;;5070456;28;20295;-66
2021/03/17 09:38:56;;;;;;;6.37;1.10;;;7.20;66.50;;;;;;5071274;28;20306;-66
2021/03/17 09:41:27;;;;;;;9.73;1.70;;;7.20;67.00;;;;;;5070957;28;20398;-66
2021/03/17 09:43:57;;;;;;;7.88;1.48;;;7.30;67.70;;;;;;5070810;28;20342;-66
2021/03/17 09:46:37;;;;;;;12.00;1.97;;;7.30;67.80;;;;;;5070473;28;20101;-66
2021/03/17 09:49:08;;;;;;;7.03;1.37;;;7.10;67.60;;;;;;5070275;28;20352;-66
2021/03/17 09:51:40;;;;;;;13.83;2.03;;;7.00;67.60;;;;;;5071373;28;20299;-66
2021/03/17 09:54:09;;;;;;;10.10;1.50;;;6.90;66.90;;;;;;5071061;28;20720;-66
2021/03/17 09:56:47;;;;;;;9.50;1.50;;;7.10;65.90;;;;;;5070251;28;20776;-66
2021/03/17 09:59:21;;;;;;;6.63;1.40;;;7.10;65.70;;;;;;5071016;28;20346;-66
2021/03/17 10:02:09;;;;;;;4.97;1.07;;;7.20;66.70;;;;;;5070925;28;20870;-66
2021/03/17 10:04:44;;;;;;;5.13;1.10;;;7.20;66.40;;;;;;5070485;28;20309;-66
2021/03/17 10:07:12;;;;;;;7.03;1.70;;;7.30;65.10;;;;;;5070601;28;20644;-66
2021/03/17 10:09:40;;;;;;;9.27;2.53;;;7.40;66.50;;;;;;5070636;28;20298;-67
2021/03/17 10:12:22;;;;;;;8.73;1.77;;;7.40;66.40;;;;;;5071020;28;20310;-67
2021/03/17 10:15:01;;;;;;;6.60;1.40;;;7.40;65.60;;;;;;5070957;28;20295;-66
2021/03/17 10:17:29;;;;;;;6.53;1.77;;;7.40;64.60;;;;;;5070411;28;20322;-66
2021/03/17 10:19:57;;;;;;;6.87;1.20;;;7.40;65.20;;;;;;5070851;28;20307;-64
2021/03/17 10:22:24;;;;;;;5.83;1.60;;;7.40;64.00;;;;;;5071020;28;20651;-66
2021/03/17 10:24:52;;;;;;;9.03;1.70;;;7.40;62.90;;;;;;5070036;28;20317;-64
2021/03/17 10:27:19;;;;;;;5.90;1.47;;;7.50;64.00;;;;;;5070603;28;20302;-66
2021/03/17 10:29:48;;;;;;;4.57;1.20;;;7.60;61.70;;;;;;5070740;28;20791;-64
2021/03/17 10:32:17;;;;;;;5.10;1.33;;;7.50;61.40;;;;;;5069792;28;20803;-65
2021/03/17 10:34:43;;;;;;;6.00;1.40;;;7.50;62.50;;;;;;5072672;28;20770;-65
2021/03/17 10:37:14;;;;;;;5.13;1.20;;;7.50;61.00;;;;;;5074547;28;20352;-65
2021/03/17 10:39:41;;;;;;;6.57;1.13;;;7.40;61.40;;;;;;5073625;28;20499;-65
2021/03/17 10:42:24;;;;;;;9.00;1.67;;;7.40;59.60;;;;;;5074090;28;20866;-65
2021/03/17 10:45:08;;;;;;;4.10;1.33;;;7.40;60.80;;;;;;5073163;28;20874;-66
2021/03/17 10:47:35;;;;;;;9.50;1.50;;;7.40;60.30;;;;;;5074514;28;20295;-65
2021/03/17 10:50:02;;;;;;;4.80;1.43;;;7.40;61.40;;;;;;5074182;28;20434;-65
2021/03/17 10:52:35;;;;;;;7.07;1.13;;;7.60;62.20;;;;;;5073607;28;20702;-65
2021/03/17 10:55:15;;;;;;;5.20;1.10;;;7.60;60.90;;;;;;5073828;28;20367;-65
2021/03/17 10:57:41;;;;;;;5.63;1.10;;;7.70;61.60;;;;;;5089829;28;20295;-65
2021/03/17 11:00:24;;;;;;;6.60;1.10;;;7.80;62.00;;;;;;5073220;28;20805;-65
2021/03/17 11:02:50;;;;;;;5.33;0.87;;;7.80;58.80;;;;;;5074002;28;20062;-65
2021/03/17 11:05:21;;;;;;;5.27;0.93;;;7.90;58.20;;;;;;5073740;28;20315;-65
2021/03/17 11:07:50;;;;;;;6.57;1.17;;;7.70;57.40;;;;;;5073047;28;20123;-66
2021/03/17 11:10:42;;;;;;;4.70;1.10;;;7.70;58.50;;;;;;5073857;28;20044;-65
2021/03/17 11:13:15;;;;;;;4.10;0.88;;;7.70;58.50;;;;;;5073093;28;20298;-66
2021/03/17 11:15:44;;;;;;;8.63;1.30;;;7.70;60.60;;;;;;5073567;28;20512;-66
2021/03/17 11:18:18;;;;;;;6.33;1.20;;;7.90;61.50;;;;;;5073859;28;20301;-65
2021/03/17 11:20:44;;;;;;;8.20;1.43;;;8.00;60.80;;;;;;5072946;28;20283;-65
2021/03/17 11:23:17;;;;;;;6.23;1.20;;;8.10;60.80;;;;;;5073657;28;20309;-66
2021/03/17 11:25:44;;;;;;;4.07;0.90;;;8.10;59.80;;;;;;5073480;28;20341;-66
2021/03/17 11:28:15;;;;;;;4.27;1.00;;;8.10;59.40;;;;;;5072920;28;20299;-66
2021/03/17 11:30:49;;;;;;;3.00;0.90;;;8.20;58.20;;;;;;5073475;28;20295;-65
2021/03/17 11:33:15;;;;;;;4.73;1.27;;;8.20;58.50;;;;;;5073187;28;20390;-65
2021/03/17 11:35:43;;;;;;;6.30;1.00;;;8.20;58.00;;;;;;5072624;28;20306;-65
2021/03/17 11:38:09;;;;;;;5.77;1.40;;;8.30;57.90;;;;;;5073261;28;20303;-66
2021/03/17 11:40:35;;;;;;;7.90;1.20;;;8.20;57.70;;;;;;5073385;28;20305;-65
2021/03/17 11:43:06;;;;;;;4.77;0.93;;;8.30;58.30;;;;;;5072279;28;20294;-64
2021/03/17 11:45:32;;;;;;;5.10;1.00;;;8.40;59.30;;;;;;5072187;28;20156;-64
2021/03/17 11:47:58;;;;;;;4.70;1.33;;;8.50;59.20;;;;;;5073226;28;20418;-64
2021/03/17 11:50:24;;;;;;;5.77;1.20;;;8.50;58.50;;;;;;5072292;28;20044;-65
2021/03/17 11:52:50;;;;;;;3.37;0.80;;;8.40;57.70;;;;;;5072923;28;20064;-65
2021/03/17 11:55:20;;;;;;;8.33;1.53;;;8.30;56.30;;;;;;5071894;28;20124;-64
2021/03/17 11:57:46;;;;;;;3.73;1.30;;;8.20;57.20;;;;;;5072559;28;20326;-64
2021/03/17 12:00:13;;;;;;;5.07;1.17;;;8.10;56.60;;;;;;5072914;28;20314;-66
2021/03/17 12:02:39;;;;;;;6.57;1.00;;;8.20;57.70;;;;;;5071924;28;20295;-65
2021/03/17 12:05:06;;;;;;;7.33;1.40;;;8.20;57.70;;;;;;5072823;28;20394;-65
2021/03/17 12:07:32;;;;;;;8.23;1.30;;;8.20;56.20;;;;;;5073336;28;20463;-65
2021/03/17 12:09:57;;;;;;;4.80;0.90;;;8.10;55.60;;;;;;5071882;28;20338;-64
2021/03/17 12:12:23;;;;;;;9.23;2.57;;;8.00;56.60;;;;;;5072440;28;20193;-64
2021/03/17 12:14:49;;;;;;;6.67;1.50;;;8.10;56.80;;;;;;5072654;28;20478;-64
2021/03/17 12:17:15;;;;;;;4.47;0.90;;;8.10;55.90;;;;;;5070896;28;20051;-65
2021/03/17 12:19:40;;;;;;;5.93;1.27;;;8.20;55.70;;;;;;5072298;28;20298;-65
2021/03/17 12:22:06;;;;;;;6.50;1.40;;;8.20;55.70;;;;;;5072570;28;20354;-65
2021/03/17 12:24:32;;;;;;;5.57;0.93;;;8.30;56.50;;;;;;5071864;28;20504;-65
2021/03/17 12:26:57;;;;;;;9.07;3.13;;;8.30;55.10;;;;;;5072155;28;20088;-65
2021/03/17 12:29:23;;;;;;;4.70;0.93;;;8.20;55.60;;;;;;5072479;28;20047;-65
2021/03/17 12:31:49;;;;;;;2.80;0.80;;;8.20;56.00;;;;;;5071405;28;20059;-64
2021/03/17 12:34:14;;;;;;;6.00;1.90;;;8.30;55.60;;;;;;5071788;28;20045;-65
2021/03/17 12:36:40;;;;;;;4.67;1.07;;;8.20;55.90;;;;;;5072395;28;20522;-65
2021/03/17 12:39:06;;;;;;;3.57;0.80;;;8.40;55.60;;;;;;5071256;28;20298;-65
2021/03/17 12:41:32;;;;;;;4.83;1.10;;;8.50;55.20;;;;;;5072439;28;20048;-65
2021/03/17 12:43:58;;;;;;;3.00;0.93;;;8.50;55.50;;;;;;5071979;28;20044;-65
2021/03/17 12:46:24;;;;;;;8.53;1.27;;;8.70;55.00;;;;;;5070809;28;20061;-65
2021/03/17 12:48:49;;;;;;;7.33;1.00;;;8.70;55.20;;;;;;5071831;28;20413;-65
2021/03/17 12:51:15;;;;;;;6.97;0.90;;;8.50;55.50;;;;;;5071449;28;20420;-65
2021/03/17 12:53:42;;;;;;;2.27;1.00;;;8.60;55.90;;;;;;5070724;28;20560;-65
2021/03/17 12:56:08;;;;;;;3.13;0.93;;;8.50;55.70;;;;;;5071874;28;20056;-65
2021/03/17 12:58:34;;;;;;;4.70;1.10;;;8.40;56.60;;;;;;5071178;28;20368;-66
2021/03/17 13:01:00;;;;;;;5.67;1.20;;;8.30;56.60;;;;;;5071725;28;20049;-65
2021/03/17 13:03:26;;;;;;;3.60;1.10;;;8.30;56.40;;;;;;5071531;28;20299;-65
2021/03/17 13:05:52;;;;;;;5.23;0.97;;;8.40;57.20;;;;;;5070449;28;20418;-65
2021/03/17 13:08:18;;;;;;;4.37;1.20;;;8.50;57.50;;;;;;5070256;28;20056;-65